sensor_id;sensor_type;location;lat;lon;timestamp;P1;durP1;ratioP1;P2;durP2;ratioP2
51810;SDS011;52468;40.116;18.296;2024-03-02T00:00:22;25.27;;;10.73;;
51810;SDS011;52468;40.116;18.296;2024-03-02T00:02:52;22.97;;;10.33;;
51810;SDS011;52468;40.116;18.296;2024-03-02T00:05:20;24.10;;;11.83;;
51810;SDS011;52468;40.116;18.296;2024-03-02T00:07:52;14.90;;;10.03;;
51810;SDS011;52468;40.116;18.296;2024-03-02T00:10:24;22.27;;;10.10;;
51810;SDS011;52468;40.116;18.296;2024-03-02T00:12:56;29.40;;;11.83;;
51810;SDS011;52468;40.116;18.296;2024-03-02T00:18:27;17.03;;;9.50;;
51810;SDS011;52468;40.116;18.296;2024-03-02T00:21:01;24.73;;;8.97;;
51810;SDS011;52468;40.116;18.296;2024-03-02T00:23:31;24.67;;;9.63;;
51810;SDS011;52468;40.116;18.296;2024-03-02T00:26:00;22.43;;;8.67;;
51810;SDS011;52468;40.116;18.296;2024-03-02T00:28:30;21.80;;;9.00;;
51810;SDS011;52468;40.116;18.296;2024-03-02T00:31:06;21.97;;;8.80;;
51810;SDS011;52468;40.116;18.296;2024-03-02T00:33:36;25.65;;;8.55;;
51810;SDS011;52468;40.116;18.296;2024-03-02T00:36:10;16.87;;;8.63;;
51810;SDS011;52468;40.116;18.296;2024-03-02T00:44:03;17.47;;;8.40;;
51810;SDS011;52468;40.116;18.296;2024-03-02T00:46:34;20.13;;;8.47;;
51810;SDS011;52468;40.116;18.296;2024-03-02T00:54:19;29.97;;;9.17;;
51810;SDS011;52468;40.116;18.296;2024-03-02T00:56:52;21.60;;;7.40;;
51810;SDS011;52468;40.116;18.296;2024-03-02T00:59:22;24.97;;;9.10;;
51810;SDS011;52468;40.116;18.296;2024-03-02T01:01:51;24.37;;;9.10;;
51810;SDS011;52468;40.116;18.296;2024-03-02T01:04:19;25.83;;;7.43;;
51810;SDS011;52468;40.116;18.296;2024-03-02T01:06:47;21.87;;;7.47;;
51810;SDS011;52468;40.116;18.296;2024-03-02T01:09:15;22.57;;;7.30;;
51810;SDS011;52468;40.116;18.296;2024-03-02T01:11:45;20.37;;;6.57;;
51810;SDS011;52468;40.116;18.296;2024-03-02T01:14:12;24.07;;;7.83;;
51810;SDS011;52468;40.116;18.296;2024-03-02T01:16:40;21.33;;;6.50;;
51810;SDS011;52468;40.116;18.296;2024-03-02T01:19:08;17.57;;;7.50;;
51810;SDS011;52468;40.116;18.296;2024-03-02T01:21:37;25.10;;;6.83;;
51810;SDS011;52468;40.116;18.296;2024-03-02T01:24:05;22.63;;;8.77;;
51810;SDS011;52468;40.116;18.296;2024-03-02T01:26:32;21.50;;;6.33;;
51810;SDS011;52468;40.116;18.296;2024-03-02T01:29:00;21.13;;;7.90;;
51810;SDS011;52468;40.116;18.296;2024-03-02T01:31:28;16.20;;;6.93;;
51810;SDS011;52468;40.116;18.296;2024-03-02T01:33:56;20.70;;;6.70;;
51810;SDS011;52468;40.116;18.296;2024-03-02T01:36:24;20.33;;;5.57;;
51810;SDS011;52468;40.116;18.296;2024-03-02T01:38:52;28.00;;;6.73;;
51810;SDS011;52468;40.116;18.296;2024-03-02T01:41:19;32.87;;;6.87;;
51810;SDS011;52468;40.116;18.296;2024-03-02T01:43:47;24.40;;;7.63;;
51810;SDS011;52468;40.116;18.296;2024-03-02T01:46:15;19.17;;;6.47;;
51810;SDS011;52468;40.116;18.296;2024-03-02T01:48:43;15.10;;;5.97;;
51810;SDS011;52468;40.116;18.296;2024-03-02T01:51:11;20.03;;;5.87;;
51810;SDS011;52468;40.116;18.296;2024-03-02T01:53:39;27.30;;;6.47;;
51810;SDS011;52468;40.116;18.296;2024-03-02T01:56:07;23.00;;;6.47;;
51810;SDS011;52468;40.116;18.296;2024-03-02T01:58:35;24.57;;;6.20;;
51810;SDS011;52468;40.116;18.296;2024-03-02T02:01:03;18.90;;;5.20;;
51810;SDS011;52468;40.116;18.296;2024-03-02T02:03:31;25.60;;;7.20;;
51810;SDS011;52468;40.116;18.296;2024-03-02T02:05:59;23.63;;;6.87;;
51810;SDS011;52468;40.116;18.296;2024-03-02T02:08:27;22.60;;;5.77;;
51810;SDS011;52468;40.116;18.296;2024-03-02T02:10:55;21.33;;;6.10;;
51810;SDS011;52468;40.116;18.296;2024-03-02T02:13:23;30.30;;;8.87;;
51810;SDS011;52468;40.116;18.296;2024-03-02T02:15:51;22.43;;;6.60;;
51810;SDS011;52468;40.116;18.296;2024-03-02T02:18:20;16.87;;;5.53;;
51810;SDS011;52468;40.116;18.296;2024-03-02T02:20:48;22.97;;;5.47;;
51810;SDS011;52468;40.116;18.296;2024-03-02T02:23:16;22.37;;;7.33;;
51810;SDS011;52468;40.116;18.296;2024-03-02T02:25:44;21.17;;;7.07;;
51810;SDS011;52468;40.116;18.296;2024-03-02T02:28:12;18.50;;;5.70;;
51810;SDS011;52468;40.116;18.296;2024-03-02T02:30:39;18.37;;;5.80;;
51810;SDS011;52468;40.116;18.296;2024-03-02T02:33:07;22.43;;;8.20;;
51810;SDS011;52468;40.116;18.296;2024-03-02T02:35:36;24.57;;;6.50;;
51810;SDS011;52468;40.116;18.296;2024-03-02T02:38:04;19.97;;;6.17;;
51810;SDS011;52468;40.116;18.296;2024-03-02T02:40:32;21.20;;;6.10;;
51810;SDS011;52468;40.116;18.296;2024-03-02T02:43:00;25.47;;;6.33;;
51810;SDS011;52468;40.116;18.296;2024-03-02T02:45:28;19.37;;;5.33;;
51810;SDS011;52468;40.116;18.296;2024-03-02T02:47:56;26.67;;;7.37;;
51810;SDS011;52468;40.116;18.296;2024-03-02T02:50:24;23.77;;;7.20;;
51810;SDS011;52468;40.116;18.296;2024-03-02T02:52:51;18.63;;;5.80;;
51810;SDS011;52468;40.116;18.296;2024-03-02T02:55:19;22.80;;;5.73;;
51810;SDS011;52468;40.116;18.296;2024-03-02T02:57:47;19.27;;;5.07;;
51810;SDS011;52468;40.116;18.296;2024-03-02T03:00:15;26.27;;;5.53;;
51810;SDS011;52468;40.116;18.296;2024-03-02T03:02:46;23.97;;;6.33;;
51810;SDS011;52468;40.116;18.296;2024-03-02T03:05:16;27.70;;;5.37;;
51810;SDS011;52468;40.116;18.296;2024-03-02T03:07:44;20.67;;;5.20;;
51810;SDS011;52468;40.116;18.296;2024-03-02T03:10:12;20.57;;;4.67;;
51810;SDS011;52468;40.116;18.296;2024-03-02T03:12:40;33.70;;;6.83;;
51810;SDS011;52468;40.116;18.296;2024-03-02T03:15:10;20.53;;;5.23;;
51810;SDS011;52468;40.116;18.296;2024-03-02T03:17:38;17.87;;;4.90;;
51810;SDS011;52468;40.116;18.296;2024-03-02T03:20:06;24.87;;;4.70;;
51810;SDS011;52468;40.116;18.296;2024-03-02T03:22:38;19.10;;;5.80;;
51810;SDS011;52468;40.116;18.296;2024-03-02T03:25:06;23.77;;;5.90;;
51810;SDS011;52468;40.116;18.296;2024-03-02T03:27:38;17.70;;;4.87;;
51810;SDS011;52468;40.116;18.296;2024-03-02T03:30:06;17.37;;;4.63;;
51810;SDS011;52468;40.116;18.296;2024-03-02T03:32:34;29.80;;;5.10;;
51810;SDS011;52468;40.116;18.296;2024-03-02T03:35:03;24.57;;;6.07;;
51810;SDS011;52468;40.116;18.296;2024-03-02T03:37:31;19.90;;;5.90;;
51810;SDS011;52468;40.116;18.296;2024-03-02T03:40:02;26.03;;;5.47;;
51810;SDS011;52468;40.116;18.296;2024-03-02T03:42:34;24.47;;;5.40;;
51810;SDS011;52468;40.116;18.296;2024-03-02T03:45:02;19.87;;;4.53;;
51810;SDS011;52468;40.116;18.296;2024-03-02T03:47:31;17.63;;;4.90;;
51810;SDS011;52468;40.116;18.296;2024-03-02T03:49:59;23.87;;;5.77;;
51810;SDS011;52468;40.116;18.296;2024-03-02T03:52:27;19.87;;;4.90;;
51810;SDS011;52468;40.116;18.296;2024-03-02T03:54:55;22.40;;;5.33;;
51810;SDS011;52468;40.116;18.296;2024-03-02T03:57:23;17.00;;;5.10;;
51810;SDS011;52468;40.116;18.296;2024-03-02T03:59:51;14.23;;;4.03;;
51810;SDS011;52468;40.116;18.296;2024-03-02T04:02:19;17.57;;;5.67;;
51810;SDS011;52468;40.116;18.296;2024-03-02T04:04:47;29.67;;;6.47;;
51810;SDS011;52468;40.116;18.296;2024-03-02T04:07:15;13.77;;;4.30;;
51810;SDS011;52468;40.116;18.296;2024-03-02T04:09:43;19.90;;;5.70;;
51810;SDS011;52468;40.116;18.296;2024-03-02T04:12:11;15.87;;;4.33;;
51810;SDS011;52468;40.116;18.296;2024-03-02T04:14:40;20.47;;;5.57;;
51810;SDS011;52468;40.116;18.296;2024-03-02T04:17:09;18.33;;;4.40;;
51810;SDS011;52468;40.116;18.296;2024-03-02T04:19:37;20.60;;;4.63;;
51810;SDS011;52468;40.116;18.296;2024-03-02T04:22:05;20.53;;;4.60;;
51810;SDS011;52468;40.116;18.296;2024-03-02T04:24:35;17.03;;;4.97;;
51810;SDS011;52468;40.116;18.296;2024-03-02T04:27:02;23.30;;;6.17;;
51810;SDS011;52468;40.116;18.296;2024-03-02T04:29:30;21.77;;;7.47;;
51810;SDS011;52468;40.116;18.296;2024-03-02T04:31:58;29.70;;;8.77;;
51810;SDS011;52468;40.116;18.296;2024-03-02T04:34:26;37.00;;;8.87;;
51810;SDS011;52468;40.116;18.296;2024-03-02T04:36:54;24.83;;;8.90;;
51810;SDS011;52468;40.116;18.296;2024-03-02T04:39:22;33.80;;;6.83;;
51810;SDS011;52468;40.116;18.296;2024-03-02T04:41:50;20.00;;;5.63;;
51810;SDS011;52468;40.116;18.296;2024-03-02T04:44:17;19.07;;;6.53;;
51810;SDS011;52468;40.116;18.296;2024-03-02T04:46:45;22.33;;;5.10;;
51810;SDS011;52468;40.116;18.296;2024-03-02T04:49:13;25.27;;;6.77;;
51810;SDS011;52468;40.116;18.296;2024-03-02T04:51:41;17.97;;;4.83;;
51810;SDS011;52468;40.116;18.296;2024-03-02T04:54:09;22.30;;;5.60;;
51810;SDS011;52468;40.116;18.296;2024-03-02T04:56:37;17.87;;;5.63;;
51810;SDS011;52468;40.116;18.296;2024-03-02T04:59:11;27.53;;;4.97;;
51810;SDS011;52468;40.116;18.296;2024-03-02T05:01:39;19.17;;;5.43;;
51810;SDS011;52468;40.116;18.296;2024-03-02T05:04:07;13.97;;;5.23;;
51810;SDS011;52468;40.116;18.296;2024-03-02T05:06:35;15.37;;;5.20;;
51810;SDS011;52468;40.116;18.296;2024-03-02T05:09:03;24.40;;;6.33;;
51810;SDS011;52468;40.116;18.296;2024-03-02T05:11:31;19.87;;;5.23;;
51810;SDS011;52468;40.116;18.296;2024-03-02T05:14:19;21.03;;;4.93;;
51810;SDS011;52468;40.116;18.296;2024-03-02T05:16:47;20.50;;;4.57;;
51810;SDS011;52468;40.116;18.296;2024-03-02T05:19:15;17.77;;;4.17;;
51810;SDS011;52468;40.116;18.296;2024-03-02T05:21:43;18.90;;;5.63;;
51810;SDS011;52468;40.116;18.296;2024-03-02T05:24:11;22.00;;;6.27;;
51810;SDS011;52468;40.116;18.296;2024-03-02T05:26:39;24.47;;;9.33;;
51810;SDS011;52468;40.116;18.296;2024-03-02T05:29:07;30.00;;;10.93;;
51810;SDS011;52468;40.116;18.296;2024-03-02T05:31:35;19.77;;;9.00;;
51810;SDS011;52468;40.116;18.296;2024-03-02T05:34:02;16.67;;;8.60;;
51810;SDS011;52468;40.116;18.296;2024-03-02T05:36:30;28.40;;;9.37;;
51810;SDS011;52468;40.116;18.296;2024-03-02T05:38:59;27.07;;;8.70;;
51810;SDS011;52468;40.116;18.296;2024-03-02T05:41:26;20.13;;;7.90;;
51810;SDS011;52468;40.116;18.296;2024-03-02T05:43:54;19.97;;;7.70;;
51810;SDS011;52468;40.116;18.296;2024-03-02T05:46:22;35.17;;;11.43;;
51810;SDS011;52468;40.116;18.296;2024-03-02T05:48:50;36.30;;;10.40;;
51810;SDS011;52468;40.116;18.296;2024-03-02T05:51:18;28.63;;;8.80;;
51810;SDS011;52468;40.116;18.296;2024-03-02T05:53:46;25.80;;;11.77;;
51810;SDS011;52468;40.116;18.296;2024-03-02T05:56:14;33.10;;;16.80;;
51810;SDS011;52468;40.116;18.296;2024-03-02T05:58:42;38.07;;;17.27;;
51810;SDS011;52468;40.116;18.296;2024-03-02T06:01:29;29.47;;;15.73;;
51810;SDS011;52468;40.116;18.296;2024-03-02T06:03:57;22.37;;;12.30;;
51810;SDS011;52468;40.116;18.296;2024-03-02T06:06:26;30.43;;;12.27;;
51810;SDS011;52468;40.116;18.296;2024-03-02T06:08:54;25.33;;;11.57;;
51810;SDS011;52468;40.116;18.296;2024-03-02T06:11:22;32.27;;;13.03;;
51810;SDS011;52468;40.116;18.296;2024-03-02T06:13:50;24.00;;;10.03;;
51810;SDS011;52468;40.116;18.296;2024-03-02T06:16:18;17.83;;;8.77;;
51810;SDS011;52468;40.116;18.296;2024-03-02T06:18:46;22.93;;;10.67;;
51810;SDS011;52468;40.116;18.296;2024-03-02T06:21:14;24.07;;;10.33;;
51810;SDS011;52468;40.116;18.296;2024-03-02T06:23:42;25.20;;;10.07;;
51810;SDS011;52468;40.116;18.296;2024-03-02T06:26:10;22.73;;;9.23;;
51810;SDS011;52468;40.116;18.296;2024-03-02T06:28:38;18.67;;;8.17;;
51810;SDS011;52468;40.116;18.296;2024-03-02T06:31:06;19.53;;;8.30;;
51810;SDS011;52468;40.116;18.296;2024-03-02T06:33:34;20.87;;;8.50;;
51810;SDS011;52468;40.116;18.296;2024-03-02T06:36:02;22.63;;;7.87;;
51810;SDS011;52468;40.116;18.296;2024-03-02T06:38:30;18.60;;;8.13;;
51810;SDS011;52468;40.116;18.296;2024-03-02T06:41:01;25.90;;;7.10;;
51810;SDS011;52468;40.116;18.296;2024-03-02T06:43:29;36.20;;;8.90;;
51810;SDS011;52468;40.116;18.296;2024-03-02T06:45:57;23.07;;;8.57;;
51810;SDS011;52468;40.116;18.296;2024-03-02T06:48:25;21.63;;;8.47;;
51810;SDS011;52468;40.116;18.296;2024-03-02T06:50:53;28.33;;;8.43;;
51810;SDS011;52468;40.116;18.296;2024-03-02T06:53:21;21.73;;;8.43;;
51810;SDS011;52468;40.116;18.296;2024-03-02T06:55:49;21.23;;;7.83;;
51810;SDS011;52468;40.116;18.296;2024-03-02T06:58:17;27.53;;;8.70;;
51810;SDS011;52468;40.116;18.296;2024-03-02T07:00:45;17.00;;;6.93;;
51810;SDS011;52468;40.116;18.296;2024-03-02T07:03:15;22.30;;;8.70;;
51810;SDS011;52468;40.116;18.296;2024-03-02T07:05:42;18.40;;;5.90;;
51810;SDS011;52468;40.116;18.296;2024-03-02T07:08:10;18.10;;;6.00;;
51810;SDS011;52468;40.116;18.296;2024-03-02T07:10:38;16.87;;;6.20;;
51810;SDS011;52468;40.116;18.296;2024-03-02T07:13:06;27.37;;;5.80;;
51810;SDS011;52468;40.116;18.296;2024-03-02T07:15:34;11.57;;;5.13;;
51810;SDS011;52468;40.116;18.296;2024-03-02T07:18:37;21.57;;;6.10;;
51810;SDS011;52468;40.116;18.296;2024-03-02T07:21:09;14.43;;;4.60;;
51810;SDS011;52468;40.116;18.296;2024-03-02T07:23:37;32.33;;;7.80;;
51810;SDS011;52468;40.116;18.296;2024-03-02T07:26:04;22.53;;;6.13;;
51810;SDS011;52468;40.116;18.296;2024-03-02T07:28:36;13.83;;;4.87;;
51810;SDS011;52468;40.116;18.296;2024-03-02T07:31:05;19.93;;;4.50;;
51810;SDS011;52468;40.116;18.296;2024-03-02T07:33:33;12.53;;;4.30;;
51810;SDS011;52468;40.116;18.296;2024-03-02T07:36:01;16.13;;;3.90;;
51810;SDS011;52468;40.116;18.296;2024-03-02T07:38:30;13.30;;;3.87;;
51810;SDS011;52468;40.116;18.296;2024-03-02T07:40:59;19.27;;;4.87;;
51810;SDS011;52468;40.116;18.296;2024-03-02T07:43:27;13.67;;;4.87;;
51810;SDS011;52468;40.116;18.296;2024-03-02T07:45:55;15.73;;;3.47;;
51810;SDS011;52468;40.116;18.296;2024-03-02T07:48:24;16.20;;;3.77;;
51810;SDS011;52468;40.116;18.296;2024-03-02T07:50:52;20.07;;;4.83;;
51810;SDS011;52468;40.116;18.296;2024-03-02T07:53:20;9.63;;;3.47;;
51810;SDS011;52468;40.116;18.296;2024-03-02T07:55:48;19.43;;;4.47;;
51810;SDS011;52468;40.116;18.296;2024-03-02T07:58:16;17.37;;;4.50;;
51810;SDS011;52468;40.116;18.296;2024-03-02T08:00:46;8.97;;;2.67;;
51810;SDS011;52468;40.116;18.296;2024-03-02T08:03:15;8.17;;;2.40;;
51810;SDS011;52468;40.116;18.296;2024-03-02T08:05:43;10.70;;;3.20;;
51810;SDS011;52468;40.116;18.296;2024-03-02T08:08:11;16.50;;;3.70;;
51810;SDS011;52468;40.116;18.296;2024-03-02T08:10:39;12.63;;;2.53;;
51810;SDS011;52468;40.116;18.296;2024-03-02T08:13:07;7.73;;;2.80;;
51810;SDS011;52468;40.116;18.296;2024-03-02T08:15:35;8.43;;;2.90;;
51810;SDS011;52468;40.116;18.296;2024-03-02T08:18:03;10.27;;;2.93;;
51810;SDS011;52468;40.116;18.296;2024-03-02T08:20:31;15.47;;;4.17;;
51810;SDS011;52468;40.116;18.296;2024-03-02T08:22:59;11.60;;;3.20;;
51810;SDS011;52468;40.116;18.296;2024-03-02T08:25:27;11.87;;;3.43;;
51810;SDS011;52468;40.116;18.296;2024-03-02T08:27:55;13.83;;;2.97;;
51810;SDS011;52468;40.116;18.296;2024-03-02T08:30:23;9.90;;;3.20;;
51810;SDS011;52468;40.116;18.296;2024-03-02T08:32:50;10.03;;;2.73;;
51810;SDS011;52468;40.116;18.296;2024-03-02T08:35:18;16.63;;;3.67;;
51810;SDS011;52468;40.116;18.296;2024-03-02T08:37:47;18.23;;;2.77;;
51810;SDS011;52468;40.116;18.296;2024-03-02T08:40:15;11.27;;;3.03;;
51810;SDS011;52468;40.116;18.296;2024-03-02T08:42:43;19.30;;;3.07;;
51810;SDS011;52468;40.116;18.296;2024-03-02T08:45:12;14.07;;;3.00;;
51810;SDS011;52468;40.116;18.296;2024-03-02T08:47:40;16.87;;;3.47;;
51810;SDS011;52468;40.116;18.296;2024-03-02T08:50:08;9.80;;;2.83;;
51810;SDS011;52468;40.116;18.296;2024-03-02T08:52:36;16.30;;;2.47;;
51810;SDS011;52468;40.116;18.296;2024-03-02T08:55:04;10.27;;;3.37;;
51810;SDS011;52468;40.116;18.296;2024-03-02T08:57:33;11.77;;;3.17;;
51810;SDS011;52468;40.116;18.296;2024-03-02T09:00:01;10.87;;;2.13;;
51810;SDS011;52468;40.116;18.296;2024-03-02T09:02:30;9.43;;;2.30;;
51810;SDS011;52468;40.116;18.296;2024-03-02T09:04:58;14.40;;;3.20;;
51810;SDS011;52468;40.116;18.296;2024-03-02T09:07:26;11.10;;;2.50;;
51810;SDS011;52468;40.116;18.296;2024-03-02T09:09:54;17.67;;;3.40;;
51810;SDS011;52468;40.116;18.296;2024-03-02T09:12:22;14.47;;;3.63;;
51810;SDS011;52468;40.116;18.296;2024-03-02T09:14:50;15.77;;;3.27;;
51810;SDS011;52468;40.116;18.296;2024-03-02T09:17:18;22.37;;;3.93;;
51810;SDS011;52468;40.116;18.296;2024-03-02T09:19:45;14.57;;;3.20;;
51810;SDS011;52468;40.116;18.296;2024-03-02T09:22:14;26.77;;;4.87;;
51810;SDS011;52468;40.116;18.296;2024-03-02T09:24:42;15.47;;;3.17;;
51810;SDS011;52468;40.116;18.296;2024-03-02T09:27:10;11.70;;;3.07;;
51810;SDS011;52468;40.116;18.296;2024-03-02T09:29:38;9.07;;;3.13;;
51810;SDS011;52468;40.116;18.296;2024-03-02T09:32:06;11.07;;;3.20;;
51810;SDS011;52468;40.116;18.296;2024-03-02T09:34:35;7.53;;;3.30;;
51810;SDS011;52468;40.116;18.296;2024-03-02T09:37:04;10.40;;;2.50;;
51810;SDS011;52468;40.116;18.296;2024-03-02T09:39:32;15.07;;;2.70;;
51810;SDS011;52468;40.116;18.296;2024-03-02T09:42:00;13.40;;;3.63;;
51810;SDS011;52468;40.116;18.296;2024-03-02T09:44:28;13.83;;;3.03;;
51810;SDS011;52468;40.116;18.296;2024-03-02T09:46:56;15.93;;;3.23;;
51810;SDS011;52468;40.116;18.296;2024-03-02T09:49:24;13.63;;;3.23;;
51810;SDS011;52468;40.116;18.296;2024-03-02T09:51:52;15.63;;;2.77;;
51810;SDS011;52468;40.116;18.296;2024-03-02T09:54:20;9.50;;;2.87;;
51810;SDS011;52468;40.116;18.296;2024-03-02T09:56:49;11.10;;;2.20;;
51810;SDS011;52468;40.116;18.296;2024-03-02T09:59:18;20.47;;;4.17;;
51810;SDS011;52468;40.116;18.296;2024-03-02T10:02:00;10.33;;;2.83;;
51810;SDS011;52468;40.116;18.296;2024-03-02T10:04:30;16.37;;;4.27;;
51810;SDS011;52468;40.116;18.296;2024-03-02T10:09:41;10.50;;;3.23;;
51810;SDS011;52468;40.116;18.296;2024-03-02T10:12:10;10.63;;;2.10;;
51810;SDS011;52468;40.116;18.296;2024-03-02T10:14:39;11.57;;;2.23;;
51810;SDS011;52468;40.116;18.296;2024-03-02T10:17:12;10.57;;;3.30;;
51810;SDS011;52468;40.116;18.296;2024-03-02T10:19:41;9.65;;;2.38;;
51810;SDS011;52468;40.116;18.296;2024-03-02T10:22:09;13.07;;;3.63;;
51810;SDS011;52468;40.116;18.296;2024-03-02T10:24:41;10.00;;;2.43;;
51810;SDS011;52468;40.116;18.296;2024-03-02T10:27:15;11.03;;;2.73;;
51810;SDS011;52468;40.116;18.296;2024-03-02T10:29:47;14.52;;;3.63;;
51810;SDS011;52468;40.116;18.296;2024-03-02T10:32:15;15.03;;;4.50;;
51810;SDS011;52468;40.116;18.296;2024-03-02T10:34:45;17.73;;;3.60;;
51810;SDS011;52468;40.116;18.296;2024-03-02T10:37:15;13.37;;;3.57;;
51810;SDS011;52468;40.116;18.296;2024-03-02T10:39:45;10.80;;;2.60;;
51810;SDS011;52468;40.116;18.296;2024-03-02T10:42:14;10.87;;;3.13;;
51810;SDS011;52468;40.116;18.296;2024-03-02T10:44:42;15.07;;;2.97;;
51810;SDS011;52468;40.116;18.296;2024-03-02T10:47:12;14.30;;;3.67;;
51810;SDS011;52468;40.116;18.296;2024-03-02T10:49:41;9.67;;;3.83;;
51810;SDS011;52468;40.116;18.296;2024-03-02T10:52:10;13.87;;;4.53;;
51810;SDS011;52468;40.116;18.296;2024-03-02T10:54:38;11.67;;;3.40;;
51810;SDS011;52468;40.116;18.296;2024-03-02T10:57:07;11.27;;;3.23;;
51810;SDS011;52468;40.116;18.296;2024-03-02T10:59:40;12.10;;;2.87;;
51810;SDS011;52468;40.116;18.296;2024-03-02T11:02:18;14.90;;;2.77;;
51810;SDS011;52468;40.116;18.296;2024-03-02T11:04:49;9.07;;;2.90;;
51810;SDS011;52468;40.116;18.296;2024-03-02T11:10:08;10.07;;;3.37;;
51810;SDS011;52468;40.116;18.296;2024-03-02T11:12:37;17.00;;;3.43;;
51810;SDS011;52468;40.116;18.296;2024-03-02T11:15:10;11.83;;;2.30;;
51810;SDS011;52468;40.116;18.296;2024-03-02T11:17:43;13.48;;;3.08;;
51810;SDS011;52468;40.116;18.296;2024-03-02T11:20:11;8.63;;;3.13;;
51810;SDS011;52468;40.116;18.296;2024-03-02T11:22:40;9.80;;;2.73;;
51810;SDS011;52468;40.116;18.296;2024-03-02T11:25:22;13.97;;;3.60;;
51810;SDS011;52468;40.116;18.296;2024-03-02T11:33:03;12.93;;;3.23;;
51810;SDS011;52468;40.116;18.296;2024-03-02T11:35:37;10.57;;;3.40;;
51810;SDS011;52468;40.116;18.296;2024-03-02T11:38:16;11.20;;;3.23;;
51810;SDS011;52468;40.116;18.296;2024-03-02T11:40:45;15.80;;;3.87;;
51810;SDS011;52468;40.116;18.296;2024-03-02T11:43:13;12.43;;;3.30;;
51810;SDS011;52468;40.116;18.296;2024-03-02T11:45:42;13.83;;;3.40;;
51810;SDS011;52468;40.116;18.296;2024-03-02T11:48:12;13.73;;;2.63;;
51810;SDS011;52468;40.116;18.296;2024-03-02T11:53:17;14.63;;;4.27;;
51810;SDS011;52468;40.116;18.296;2024-03-02T11:55:46;11.93;;;2.60;;
51810;SDS011;52468;40.116;18.296;2024-03-02T11:58:16;9.73;;;3.70;;
51810;SDS011;52468;40.116;18.296;2024-03-02T12:00:50;9.50;;;2.60;;
51810;SDS011;52468;40.116;18.296;2024-03-02T12:03:20;12.87;;;3.07;;
51810;SDS011;52468;40.116;18.296;2024-03-02T12:05:50;13.13;;;3.00;;
51810;SDS011;52468;40.116;18.296;2024-03-02T12:08:18;13.43;;;3.30;;
51810;SDS011;52468;40.116;18.296;2024-03-02T12:10:56;20.03;;;3.63;;
51810;SDS011;52468;40.116;18.296;2024-03-02T12:13:28;12.63;;;4.20;;
51810;SDS011;52468;40.116;18.296;2024-03-02T12:15:56;15.10;;;4.07;;
51810;SDS011;52468;40.116;18.296;2024-03-02T12:18:25;14.50;;;3.53;;
51810;SDS011;52468;40.116;18.296;2024-03-02T12:20:53;11.43;;;3.53;;
51810;SDS011;52468;40.116;18.296;2024-03-02T12:23:24;13.03;;;3.20;;
51810;SDS011;52468;40.116;18.296;2024-03-02T12:25:53;14.77;;;2.33;;
51810;SDS011;52468;40.116;18.296;2024-03-02T12:28:21;12.67;;;2.43;;
51810;SDS011;52468;40.116;18.296;2024-03-02T12:30:49;10.93;;;3.77;;
51810;SDS011;52468;40.116;18.296;2024-03-02T12:33:17;11.80;;;2.90;;
51810;SDS011;52468;40.116;18.296;2024-03-02T12:35:45;13.47;;;2.53;;
51810;SDS011;52468;40.116;18.296;2024-03-02T12:38:14;12.07;;;3.13;;
51810;SDS011;52468;40.116;18.296;2024-03-02T12:40:42;14.43;;;4.20;;
51810;SDS011;52468;40.116;18.296;2024-03-02T12:43:10;17.73;;;5.20;;
51810;SDS011;52468;40.116;18.296;2024-03-02T12:45:38;10.10;;;2.50;;
51810;SDS011;52468;40.116;18.296;2024-03-02T12:48:06;14.33;;;3.20;;
51810;SDS011;52468;40.116;18.296;2024-03-02T12:50:34;10.13;;;2.87;;
51810;SDS011;52468;40.116;18.296;2024-03-02T12:53:02;16.00;;;4.93;;
51810;SDS011;52468;40.116;18.296;2024-03-02T12:55:30;11.73;;;2.70;;
51810;SDS011;52468;40.116;18.296;2024-03-02T12:57:58;8.97;;;2.87;;
51810;SDS011;52468;40.116;18.296;2024-03-02T13:00:27;17.67;;;4.57;;
51810;SDS011;52468;40.116;18.296;2024-03-02T13:02:56;13.80;;;4.50;;
51810;SDS011;52468;40.116;18.296;2024-03-02T13:05:32;8.93;;;2.77;;
51810;SDS011;52468;40.116;18.296;2024-03-02T13:08:00;11.73;;;4.53;;
51810;SDS011;52468;40.116;18.296;2024-03-02T13:10:30;15.40;;;2.80;;
51810;SDS011;52468;40.116;18.296;2024-03-02T13:12:59;11.43;;;2.57;;
51810;SDS011;52468;40.116;18.296;2024-03-02T13:15:28;11.30;;;3.20;;
51810;SDS011;52468;40.116;18.296;2024-03-02T13:17:58;16.13;;;3.63;;
51810;SDS011;52468;40.116;18.296;2024-03-02T13:20:30;20.67;;;4.03;;
51810;SDS011;52468;40.116;18.296;2024-03-02T13:22:59;9.97;;;2.47;;
51810;SDS011;52468;40.116;18.296;2024-03-02T13:25:27;9.63;;;3.07;;
51810;SDS011;52468;40.116;18.296;2024-03-02T13:27:56;14.60;;;3.63;;
51810;SDS011;52468;40.116;18.296;2024-03-02T13:30:24;11.57;;;4.13;;
51810;SDS011;52468;40.116;18.296;2024-03-02T13:32:51;18.03;;;3.83;;
51810;SDS011;52468;40.116;18.296;2024-03-02T13:35:21;10.97;;;3.13;;
51810;SDS011;52468;40.116;18.296;2024-03-02T13:37:49;14.73;;;4.63;;
51810;SDS011;52468;40.116;18.296;2024-03-02T13:40:17;16.33;;;4.03;;
51810;SDS011;52468;40.116;18.296;2024-03-02T13:42:47;17.90;;;4.60;;
51810;SDS011;52468;40.116;18.296;2024-03-02T13:45:15;14.00;;;4.23;;
51810;SDS011;52468;40.116;18.296;2024-03-02T13:47:44;13.53;;;3.67;;
51810;SDS011;52468;40.116;18.296;2024-03-02T13:50:12;14.63;;;3.70;;
51810;SDS011;52468;40.116;18.296;2024-03-02T13:52:40;17.60;;;4.00;;
51810;SDS011;52468;40.116;18.296;2024-03-02T13:55:08;13.80;;;3.87;;
51810;SDS011;52468;40.116;18.296;2024-03-02T13:57:36;15.67;;;3.80;;
51810;SDS011;52468;40.116;18.296;2024-03-02T14:00:05;15.40;;;4.87;;
51810;SDS011;52468;40.116;18.296;2024-03-02T14:02:40;21.97;;;4.43;;
51810;SDS011;52468;40.116;18.296;2024-03-02T14:05:08;8.40;;;3.33;;
51810;SDS011;52468;40.116;18.296;2024-03-02T14:07:38;20.27;;;3.93;;
51810;SDS011;52468;40.116;18.296;2024-03-02T14:10:07;7.50;;;2.40;;
51810;SDS011;52468;40.116;18.296;2024-03-02T14:12:36;5.40;;;1.83;;
51810;SDS011;52468;40.116;18.296;2024-03-02T14:15:04;14.23;;;2.23;;
51810;SDS011;52468;40.116;18.296;2024-03-02T14:17:33;12.90;;;3.87;;
51810;SDS011;52468;40.116;18.296;2024-03-02T14:20:01;7.80;;;2.17;;
51810;SDS011;52468;40.116;18.296;2024-03-02T14:22:30;14.07;;;2.73;;
51810;SDS011;52468;40.116;18.296;2024-03-02T14:24:59;7.97;;;1.80;;
51810;SDS011;52468;40.116;18.296;2024-03-02T14:27:27;7.17;;;2.10;;
51810;SDS011;52468;40.116;18.296;2024-03-02T14:29:58;10.53;;;2.50;;
51810;SDS011;52468;40.116;18.296;2024-03-02T14:32:26;10.50;;;2.17;;
51810;SDS011;52468;40.116;18.296;2024-03-02T14:34:54;4.40;;;1.63;;
51810;SDS011;52468;40.116;18.296;2024-03-02T14:37:22;10.17;;;2.13;;
51810;SDS011;52468;40.116;18.296;2024-03-02T14:39:50;10.13;;;1.87;;
51810;SDS011;52468;40.116;18.296;2024-03-02T14:42:18;9.83;;;2.10;;
51810;SDS011;52468;40.116;18.296;2024-03-02T14:44:46;5.50;;;1.90;;
51810;SDS011;52468;40.116;18.296;2024-03-02T14:47:14;9.07;;;3.10;;
51810;SDS011;52468;40.116;18.296;2024-03-02T14:49:43;6.40;;;2.27;;
51810;SDS011;52468;40.116;18.296;2024-03-02T14:52:11;5.07;;;1.83;;
51810;SDS011;52468;40.116;18.296;2024-03-02T14:54:38;8.33;;;1.87;;
51810;SDS011;52468;40.116;18.296;2024-03-02T14:57:06;9.33;;;1.77;;